sensor_id;sensor_type;location;lat;lon;timestamp;P1;durP1;ratioP1;P2;durP2;ratioP2
21272;SDS011;36726;52.328;10.552;2022-07-01T00:02:01;10.57;;;7.72;;
21272;SDS011;36726;52.328;10.552;2022-07-01T00:04:28;13.30;;;7.18;;
21272;SDS011;36726;52.328;10.552;2022-07-01T00:07:15;10.25;;;6.38;;
21272;SDS011;36726;52.328;10.552;2022-07-01T00:09:42;10.93;;;7.32;;
21272;SDS011;36726;52.328;10.552;2022-07-01T00:12:09;9.65;;;7.40;;
21272;SDS011;36726;52.328;10.552;2022-07-01T00:14:36;12.48;;;7.35;;
21272;SDS011;36726;52.328;10.552;2022-07-01T00:17:02;12.15;;;7.38;;
21272;SDS011;36726;52.328;10.552;2022-07-01T00:19:29;10.50;;;6.85;;
21272;SDS011;36726;52.328;10.552;2022-07-01T00:21:55;8.45;;;6.50;;
21272;SDS011;36726;52.328;10.552;2022-07-01T00:24:23;9.70;;;6.25;;
21272;SDS011;36726;52.328;10.552;2022-07-01T00:26:50;12.48;;;6.28;;
21272;SDS011;36726;52.328;10.552;2022-07-01T00:29:18;7.57;;;5.53;;
21272;SDS011;36726;52.328;10.552;2022-07-01T00:31:45;10.20;;;5.22;;
21272;SDS011;36726;52.328;10.552;2022-07-01T00:34:11;9.48;;;5.32;;
21272;SDS011;36726;52.328;10.552;2022-07-01T00:36:38;8.00;;;4.68;;
21272;SDS011;36726;52.328;10.552;2022-07-01T00:39:05;6.90;;;4.65;;
21272;SDS011;36726;52.328;10.552;2022-07-01T00:41:32;6.82;;;4.35;;
21272;SDS011;36726;52.328;10.552;2022-07-01T00:43:58;6.30;;;4.30;;
21272;SDS011;36726;52.328;10.552;2022-07-01T00:46:25;6.82;;;4.15;;
21272;SDS011;36726;52.328;10.552;2022-07-01T00:48:56;7.35;;;4.43;;
21272;SDS011;36726;52.328;10.552;2022-07-01T00:51:24;5.28;;;4.30;;
21272;SDS011;36726;52.328;10.552;2022-07-01T00:53:51;8.18;;;3.97;;
21272;SDS011;36726;52.328;10.552;2022-07-01T00:56:18;5.97;;;3.95;;
21272;SDS011;36726;52.328;10.552;2022-07-01T00:58:45;7.90;;;3.53;;
21272;SDS011;36726;52.328;10.552;2022-07-01T01:01:12;6.70;;;3.70;;
21272;SDS011;36726;52.328;10.552;2022-07-01T01:03:39;4.03;;;3.30;;
21272;SDS011;36726;52.328;10.552;2022-07-01T01:06:05;4.22;;;3.80;;
21272;SDS011;36726;52.328;10.552;2022-07-01T01:08:32;4.68;;;3.38;;
21272;SDS011;36726;52.328;10.552;2022-07-01T01:10:59;4.32;;;3.38;;
21272;SDS011;36726;52.328;10.552;2022-07-01T01:13:26;4.80;;;3.80;;
21272;SDS011;36726;52.328;10.552;2022-07-01T01:15:52;5.78;;;3.78;;
21272;SDS011;36726;52.328;10.552;2022-07-01T01:18:19;6.65;;;3.97;;
21272;SDS011;36726;52.328;10.552;2022-07-01T01:20:46;6.70;;;3.95;;
21272;SDS011;36726;52.328;10.552;2022-07-01T01:23:13;6.20;;;4.35;;
21272;SDS011;36726;52.328;10.552;2022-07-01T01:25:39;5.82;;;4.53;;
21272;SDS011;36726;52.328;10.552;2022-07-01T01:28:06;6.60;;;4.82;;
21272;SDS011;36726;52.328;10.552;2022-07-01T01:30:32;8.20;;;4.35;;
21272;SDS011;36726;52.328;10.552;2022-07-01T01:32:59;8.05;;;4.65;;
21272;SDS011;36726;52.328;10.552;2022-07-01T01:35:26;7.78;;;4.35;;
21272;SDS011;36726;52.328;10.552;2022-07-01T01:37:52;6.07;;;4.50;;
21272;SDS011;36726;52.328;10.552;2022-07-01T01:40:19;8.63;;;5.22;;
21272;SDS011;36726;52.328;10.552;2022-07-01T01:42:46;7.22;;;4.68;;
21272;SDS011;36726;52.328;10.552;2022-07-01T01:45:13;6.43;;;4.82;;
21272;SDS011;36726;52.328;10.552;2022-07-01T01:47:39;6.20;;;4.53;;
21272;SDS011;36726;52.328;10.552;2022-07-01T01:50:08;4.88;;;3.70;;
21272;SDS011;36726;52.328;10.552;2022-07-01T01:52:37;4.28;;;3.78;;
21272;SDS011;36726;52.328;10.552;2022-07-01T01:55:09;7.55;;;4.30;;
21272;SDS011;36726;52.328;10.552;2022-07-01T01:57:36;5.10;;;4.03;;
21272;SDS011;36726;52.328;10.552;2022-07-01T02:00:04;7.78;;;4.30;;
21272;SDS011;36726;52.328;10.552;2022-07-01T02:02:39;5.30;;;3.88;;
21272;SDS011;36726;52.328;10.552;2022-07-01T02:05:08;10.10;;;4.22;;
21272;SDS011;36726;52.328;10.552;2022-07-01T02:07:39;5.50;;;3.67;;
21272;SDS011;36726;52.328;10.552;2022-07-01T02:10:06;4.47;;;3.28;;
21272;SDS011;36726;52.328;10.552;2022-07-01T02:12:35;5.97;;;3.58;;
21272;SDS011;36726;52.328;10.552;2022-07-01T02:15:02;4.20;;;3.17;;
21272;SDS011;36726;52.328;10.552;2022-07-01T02:17:29;5.13;;;3.75;;
21272;SDS011;36726;52.328;10.552;2022-07-01T02:19:56;3.42;;;3.00;;
21272;SDS011;36726;52.328;10.552;2022-07-01T02:22:22;6.30;;;2.83;;
21272;SDS011;36726;52.328;10.552;2022-07-01T02:24:49;4.07;;;3.20;;
21272;SDS011;36726;52.328;10.552;2022-07-01T02:27:15;3.72;;;3.17;;
21272;SDS011;36726;52.328;10.552;2022-07-01T02:29:42;4.90;;;3.30;;
21272;SDS011;36726;52.328;10.552;2022-07-01T02:32:09;4.70;;;3.17;;
21272;SDS011;36726;52.328;10.552;2022-07-01T02:34:35;4.18;;;2.90;;
21272;SDS011;36726;52.328;10.552;2022-07-01T02:37:03;6.13;;;3.30;;
21272;SDS011;36726;52.328;10.552;2022-07-01T02:39:31;6.13;;;3.92;;
21272;SDS011;36726;52.328;10.552;2022-07-01T02:41:58;5.10;;;4.20;;
21272;SDS011;36726;52.328;10.552;2022-07-01T02:44:44;4.47;;;3.97;;
21272;SDS011;36726;52.328;10.552;2022-07-01T02:47:10;4.18;;;3.65;;
21272;SDS011;36726;52.328;10.552;2022-07-01T02:49:37;4.07;;;3.63;;
21272;SDS011;36726;52.328;10.552;2022-07-01T02:52:05;5.15;;;3.53;;
21272;SDS011;36726;52.328;10.552;2022-07-01T02:54:34;3.45;;;2.90;;
21272;SDS011;36726;52.328;10.552;2022-07-01T02:57:01;3.92;;;3.15;;
21272;SDS011;36726;52.328;10.552;2022-07-01T02:59:28;6.07;;;4.57;;
21272;SDS011;36726;52.328;10.552;2022-07-01T03:01:56;15.75;;;7.65;;
21272;SDS011;36726;52.328;10.552;2022-07-01T03:04:23;13.25;;;6.85;;
21272;SDS011;36726;52.328;10.552;2022-07-01T03:06:50;10.77;;;7.90;;
21272;SDS011;36726;52.328;10.552;2022-07-01T03:09:16;13.52;;;8.20;;
21272;SDS011;36726;52.328;10.552;2022-07-01T03:11:43;11.02;;;7.97;;
21272;SDS011;36726;52.328;10.552;2022-07-01T03:14:10;9.43;;;7.43;;
21272;SDS011;36726;52.328;10.552;2022-07-01T03:16:36;10.43;;;7.93;;
21272;SDS011;36726;52.328;10.552;2022-07-01T03:19:03;10.40;;;7.95;;
21272;SDS011;36726;52.328;10.552;2022-07-01T03:21:29;13.20;;;8.10;;
21272;SDS011;36726;52.328;10.552;2022-07-01T03:23:56;10.40;;;7.63;;
21272;SDS011;36726;52.328;10.552;2022-07-01T03:26:23;12.85;;;8.50;;
21272;SDS011;36726;52.328;10.552;2022-07-01T03:28:49;11.13;;;9.00;;
21272;SDS011;36726;52.328;10.552;2022-07-01T03:31:16;11.20;;;8.10;;
21272;SDS011;36726;52.328;10.552;2022-07-01T03:33:43;9.10;;;7.13;;
21272;SDS011;36726;52.328;10.552;2022-07-01T03:36:09;9.30;;;7.32;;
21272;SDS011;36726;52.328;10.552;2022-07-01T03:38:36;11.48;;;8.25;;
21272;SDS011;36726;52.328;10.552;2022-07-01T03:41:03;10.40;;;7.85;;
21272;SDS011;36726;52.328;10.552;2022-07-01T03:43:29;10.02;;;8.32;;
21272;SDS011;36726;52.328;10.552;2022-07-01T03:45:56;11.75;;;7.60;;
21272;SDS011;36726;52.328;10.552;2022-07-01T03:48:22;11.75;;;8.15;;
21272;SDS011;36726;52.328;10.552;2022-07-01T03:50:49;10.60;;;7.70;;
21272;SDS011;36726;52.328;10.552;2022-07-01T03:53:15;11.00;;;8.20;;
21272;SDS011;36726;52.328;10.552;2022-07-01T03:56:08;9.65;;;7.45;;
21272;SDS011;36726;52.328;10.552;2022-07-01T03:58:35;9.13;;;6.97;;
21272;SDS011;36726;52.328;10.552;2022-07-01T04:01:01;9.00;;;6.85;;
21272;SDS011;36726;52.328;10.552;2022-07-01T04:03:28;9.68;;;6.28;;
21272;SDS011;36726;52.328;10.552;2022-07-01T04:05:55;6.60;;;5.63;;
21272;SDS011;36726;52.328;10.552;2022-07-01T04:08:21;7.43;;;5.38;;
21272;SDS011;36726;52.328;10.552;2022-07-01T04:10:48;7.15;;;4.57;;
21272;SDS011;36726;52.328;10.552;2022-07-01T04:13:17;6.65;;;4.65;;
21272;SDS011;36726;52.328;10.552;2022-07-01T04:15:59;4.40;;;3.42;;
21272;SDS011;36726;52.328;10.552;2022-07-01T04:18:27;4.30;;;3.28;;
21272;SDS011;36726;52.328;10.552;2022-07-01T04:20:54;6.22;;;3.67;;
21272;SDS011;36726;52.328;10.552;2022-07-01T04:23:39;3.88;;;2.97;;
21272;SDS011;36726;52.328;10.552;2022-07-01T04:26:07;3.45;;;2.90;;
21272;SDS011;36726;52.328;10.552;2022-07-01T04:28:55;2.92;;;2.72;;
21272;SDS011;36726;52.328;10.552;2022-07-01T04:31:22;5.55;;;3.00;;
21272;SDS011;36726;52.328;10.552;2022-07-01T04:33:49;7.35;;;3.55;;
21272;SDS011;36726;52.328;10.552;2022-07-01T04:36:16;3.78;;;2.78;;
21272;SDS011;36726;52.328;10.552;2022-07-01T04:38:43;3.25;;;2.90;;
21272;SDS011;36726;52.328;10.552;2022-07-01T04:41:10;3.65;;;3.30;;
21272;SDS011;36726;52.328;10.552;2022-07-01T04:43:55;3.63;;;3.33;;
21272;SDS011;36726;52.328;10.552;2022-07-01T04:46:21;5.68;;;3.72;;
21272;SDS011;36726;52.328;10.552;2022-07-01T04:48:48;8.02;;;4.10;;
21272;SDS011;36726;52.328;10.552;2022-07-01T04:51:15;5.68;;;3.80;;
21272;SDS011;36726;52.328;10.552;2022-07-01T04:53:41;4.00;;;3.50;;
21272;SDS011;36726;52.328;10.552;2022-07-01T04:56:08;4.97;;;3.25;;
21272;SDS011;36726;52.328;10.552;2022-07-01T04:58:34;6.53;;;3.22;;
21272;SDS011;36726;52.328;10.552;2022-07-01T05:01:01;3.38;;;3.05;;
21272;SDS011;36726;52.328;10.552;2022-07-01T05:03:28;6.70;;;3.30;;
21272;SDS011;36726;52.328;10.552;2022-07-01T05:05:55;3.75;;;3.22;;
21272;SDS011;36726;52.328;10.552;2022-07-01T05:08:22;3.70;;;2.88;;
21272;SDS011;36726;52.328;10.552;2022-07-01T05:10:49;3.97;;;3.15;;
21272;SDS011;36726;52.328;10.552;2022-07-01T05:13:16;5.28;;;3.05;;
21272;SDS011;36726;52.328;10.552;2022-07-01T05:15:42;4.53;;;2.88;;
21272;SDS011;36726;52.328;10.552;2022-07-01T05:18:09;3.67;;;2.55;;
21272;SDS011;36726;52.328;10.552;2022-07-01T05:20:54;3.45;;;2.50;;
21272;SDS011;36726;52.328;10.552;2022-07-01T05:23:39;3.97;;;2.17;;
21272;SDS011;36726;52.328;10.552;2022-07-01T05:26:06;3.13;;;2.42;;
21272;SDS011;36726;52.328;10.552;2022-07-01T05:28:32;2.38;;;2.17;;
21272;SDS011;36726;52.328;10.552;2022-07-01T05:31:00;3.05;;;2.28;;
21272;SDS011;36726;52.328;10.552;2022-07-01T05:33:26;4.63;;;2.30;;
21272;SDS011;36726;52.328;10.552;2022-07-01T05:35:53;4.65;;;2.42;;
21272;SDS011;36726;52.328;10.552;2022-07-01T05:38:20;5.00;;;3.15;;
21272;SDS011;36726;52.328;10.552;2022-07-01T05:40:47;3.88;;;2.10;;
21272;SDS011;36726;52.328;10.552;2022-07-01T05:43:14;3.28;;;2.53;;
21272;SDS011;36726;52.328;10.552;2022-07-01T05:45:41;4.80;;;2.97;;
21272;SDS011;36726;52.328;10.552;2022-07-01T05:48:07;3.60;;;2.40;;
21272;SDS011;36726;52.328;10.552;2022-07-01T05:50:34;4.43;;;3.10;;
21272;SDS011;36726;52.328;10.552;2022-07-01T05:53:00;2.80;;;2.45;;
21272;SDS011;36726;52.328;10.552;2022-07-01T05:55:27;4.57;;;3.22;;
21272;SDS011;36726;52.328;10.552;2022-07-01T05:57:54;3.33;;;2.88;;
21272;SDS011;36726;52.328;10.552;2022-07-01T06:00:20;3.45;;;2.88;;
21272;SDS011;36726;52.328;10.552;2022-07-01T06:02:47;4.30;;;3.08;;
21272;SDS011;36726;52.328;10.552;2022-07-01T06:05:14;3.50;;;3.17;;
21272;SDS011;36726;52.328;10.552;2022-07-01T06:07:41;5.15;;;3.28;;
21272;SDS011;36726;52.328;10.552;2022-07-01T06:10:09;3.35;;;3.03;;
21272;SDS011;36726;52.328;10.552;2022-07-01T06:12:37;3.58;;;2.97;;
21272;SDS011;36726;52.328;10.552;2022-07-01T06:15:07;4.10;;;2.75;;
21272;SDS011;36726;52.328;10.552;2022-07-01T06:17:37;4.28;;;3.08;;
21272;SDS011;36726;52.328;10.552;2022-07-01T06:20:04;3.25;;;2.95;;
21272;SDS011;36726;52.328;10.552;2022-07-01T06:22:32;3.60;;;3.00;;
21272;SDS011;36726;52.328;10.552;2022-07-01T06:24:59;4.97;;;3.35;;
21272;SDS011;36726;52.328;10.552;2022-07-01T06:27:27;5.07;;;3.97;;
21272;SDS011;36726;52.328;10.552;2022-07-01T06:29:54;6.32;;;4.28;;
21272;SDS011;36726;52.328;10.552;2022-07-01T06:32:20;4.85;;;3.92;;
21272;SDS011;36726;52.328;10.552;2022-07-01T06:34:49;6.63;;;4.53;;
21272;SDS011;36726;52.328;10.552;2022-07-01T06:37:16;4.80;;;4.40;;
21272;SDS011;36726;52.328;10.552;2022-07-01T06:39:46;5.60;;;4.03;;
21272;SDS011;36726;52.328;10.552;2022-07-01T06:42:13;4.68;;;3.33;;
21272;SDS011;36726;52.328;10.552;2022-07-01T06:44:43;3.58;;;3.22;;
21272;SDS011;36726;52.328;10.552;2022-07-01T06:47:10;4.78;;;2.88;;
21272;SDS011;36726;52.328;10.552;2022-07-01T06:49:40;4.55;;;3.05;;
21272;SDS011;36726;52.328;10.552;2022-07-01T06:52:07;6.25;;;3.55;;
21272;SDS011;36726;52.328;10.552;2022-07-01T06:54:34;7.65;;;3.90;;
21272;SDS011;36726;52.328;10.552;2022-07-01T06:57:04;4.65;;;3.70;;
21272;SDS011;36726;52.328;10.552;2022-07-01T06:59:31;4.07;;;3.63;;
21272;SDS011;36726;52.328;10.552;2022-07-01T07:01:58;4.75;;;3.58;;
21272;SDS011;36726;52.328;10.552;2022-07-01T07:04:25;4.47;;;3.17;;
21272;SDS011;36726;52.328;10.552;2022-07-01T07:07:12;6.85;;;4.38;;
21272;SDS011;36726;52.328;10.552;2022-07-01T07:09:39;6.63;;;3.58;;
21272;SDS011;36726;52.328;10.552;2022-07-01T07:12:05;5.20;;;4.32;;
21272;SDS011;36726;52.328;10.552;2022-07-01T07:14:32;4.38;;;3.55;;
21272;SDS011;36726;52.328;10.552;2022-07-01T07:16:59;6.43;;;4.28;;
21272;SDS011;36726;52.328;10.552;2022-07-01T07:19:25;6.35;;;4.30;;
21272;SDS011;36726;52.328;10.552;2022-07-01T07:21:52;6.07;;;4.88;;
21272;SDS011;36726;52.328;10.552;2022-07-01T07:24:18;5.07;;;4.40;;
21272;SDS011;36726;52.328;10.552;2022-07-01T07:26:45;6.47;;;4.40;;
21272;SDS011;36726;52.328;10.552;2022-07-01T07:29:12;6.45;;;4.35;;
21272;SDS011;36726;52.328;10.552;2022-07-01T07:31:39;6.40;;;4.35;;
21272;SDS011;36726;52.328;10.552;2022-07-01T07:34:06;6.45;;;4.68;;
21272;SDS011;36726;52.328;10.552;2022-07-01T07:36:32;7.28;;;4.20;;
21272;SDS011;36726;52.328;10.552;2022-07-01T07:38:59;6.63;;;4.63;;
21272;SDS011;36726;52.328;10.552;2022-07-01T07:41:25;5.45;;;4.28;;
21272;SDS011;36726;52.328;10.552;2022-07-01T07:43:52;7.22;;;4.70;;
21272;SDS011;36726;52.328;10.552;2022-07-01T07:46:19;5.50;;;4.43;;
21272;SDS011;36726;52.328;10.552;2022-07-01T07:48:45;9.57;;;5.05;;
21272;SDS011;36726;52.328;10.552;2022-07-01T07:51:12;9.15;;;5.28;;
21272;SDS011;36726;52.328;10.552;2022-07-01T07:53:50;5.35;;;4.82;;
21272;SDS011;36726;52.328;10.552;2022-07-01T07:56:17;5.35;;;4.53;;
21272;SDS011;36726;52.328;10.552;2022-07-01T07:58:44;8.63;;;5.28;;
21272;SDS011;36726;52.328;10.552;2022-07-01T08:01:10;5.43;;;4.30;;
21272;SDS011;36726;52.328;10.552;2022-07-01T08:03:37;5.72;;;4.25;;
21272;SDS011;36726;52.328;10.552;2022-07-01T08:06:04;6.88;;;4.38;;
21272;SDS011;36726;52.328;10.552;2022-07-01T08:08:31;6.13;;;4.43;;
21272;SDS011;36726;52.328;10.552;2022-07-01T08:10:58;7.60;;;4.57;;
21272;SDS011;36726;52.328;10.552;2022-07-01T08:13:24;5.93;;;4.68;;
21272;SDS011;36726;52.328;10.552;2022-07-01T08:15:52;6.82;;;4.68;;
21272;SDS011;36726;52.328;10.552;2022-07-01T08:18:19;6.32;;;4.55;;
21272;SDS011;36726;52.328;10.552;2022-07-01T08:20:45;6.28;;;4.88;;
21272;SDS011;36726;52.328;10.552;2022-07-01T08:23:13;6.85;;;5.20;;
21272;SDS011;36726;52.328;10.552;2022-07-01T08:25:40;7.80;;;4.85;;
21272;SDS011;36726;52.328;10.552;2022-07-01T08:28:06;5.97;;;4.88;;
21272;SDS011;36726;52.328;10.552;2022-07-01T08:30:33;7.28;;;5.00;;
21272;SDS011;36726;52.328;10.552;2022-07-01T08:33:00;6.25;;;4.72;;
21272;SDS011;36726;52.328;10.552;2022-07-01T08:35:28;7.18;;;4.85;;
21272;SDS011;36726;52.328;10.552;2022-07-01T08:37:56;6.60;;;4.70;;
21272;SDS011;36726;52.328;10.552;2022-07-01T08:40:27;6.45;;;5.20;;
21272;SDS011;36726;52.328;10.552;2022-07-01T08:42:59;5.63;;;4.38;;
21272;SDS011;36726;52.328;10.552;2022-07-01T08:45:30;4.57;;;4.00;;
21272;SDS011;36726;52.328;10.552;2022-07-01T08:47:59;4.95;;;3.92;;
21272;SDS011;36726;52.328;10.552;2022-07-01T08:50:28;4.95;;;3.20;;
21272;SDS011;36726;52.328;10.552;2022-07-01T08:52:56;6.10;;;4.28;;
21272;SDS011;36726;52.328;10.552;2022-07-01T08:55:24;5.97;;;4.18;;
21272;SDS011;36726;52.328;10.552;2022-07-01T08:57:52;5.68;;;4.32;;
21272;SDS011;36726;52.328;10.552;2022-07-01T09:00:19;5.20;;;4.25;;
21272;SDS011;36726;52.328;10.552;2022-07-01T09:05:19;5.47;;;4.53;;
21272;SDS011;36726;52.328;10.552;2022-07-01T09:07:46;5.72;;;4.80;;
21272;SDS011;36726;52.328;10.552;2022-07-01T09:10:18;6.30;;;4.97;;
21272;SDS011;36726;52.328;10.552;2022-07-01T09:12:45;8.43;;;5.03;;
21272;SDS011;36726;52.328;10.552;2022-07-01T09:18:00;5.72;;;4.90;;
21272;SDS011;36726;52.328;10.552;2022-07-01T09:20:32;6.68;;;4.93;;
21272;SDS011;36726;52.328;10.552;2022-07-01T09:23:19;7.20;;;5.38;;
21272;SDS011;36726;52.328;10.552;2022-07-01T09:25:47;7.78;;;5.43;;
21272;SDS011;36726;52.328;10.552;2022-07-01T09:28:22;8.40;;;5.90;;
21272;SDS011;36726;52.328;10.552;2022-07-01T09:30:51;6.80;;;5.70;;
21272;SDS011;36726;52.328;10.552;2022-07-01T09:33:24;7.63;;;5.75;;
21272;SDS011;36726;52.328;10.552;2022-07-01T09:35:56;7.63;;;5.55;;
21272;SDS011;36726;52.328;10.552;2022-07-01T09:38:23;7.70;;;6.45;;
21272;SDS011;36726;52.328;10.552;2022-07-01T09:43:30;6.60;;;5.85;;
21272;SDS011;36726;52.328;10.552;2022-07-01T09:46:10;8.52;;;6.13;;
21272;SDS011;36726;52.328;10.552;2022-07-01T09:51:06;10.05;;;6.30;;
21272;SDS011;36726;52.328;10.552;2022-07-01T09:53:40;8.90;;;5.95;;
21272;SDS011;36726;52.328;10.552;2022-07-01T09:56:08;6.32;;;4.97;;
21272;SDS011;36726;52.328;10.552;2022-07-01T09:58:34;10.40;;;5.43;;
21272;SDS011;36726;52.328;10.552;2022-07-01T10:01:04;7.28;;;5.50;;
21272;SDS011;36726;52.328;10.552;2022-07-01T10:03:31;6.05;;;5.40;;
21272;SDS011;36726;52.328;10.552;2022-07-01T10:06:08;6.15;;;4.45;;
21272;SDS011;36726;52.328;10.552;2022-07-01T10:14:16;6.10;;;4.35;;
21272;SDS011;36726;52.328;10.552;2022-07-01T10:16:45;5.82;;;4.53;;
21272;SDS011;36726;52.328;10.552;2022-07-01T10:21:52;4.40;;;4.00;;
21272;SDS011;36726;52.328;10.552;2022-07-01T10:24:26;4.53;;;3.63;;
21272;SDS011;36726;52.328;10.552;2022-07-01T10:27:00;6.15;;;4.40;;
21272;SDS011;36726;52.328;10.552;2022-07-01T10:29:28;6.30;;;4.35;;
21272;SDS011;36726;52.328;10.552;2022-07-01T10:32:09;5.30;;;3.95;;
21272;SDS011;36726;52.328;10.552;2022-07-01T10:35:11;5.75;;;4.47;;
21272;SDS011;36726;52.328;10.552;2022-07-01T10:38:00;4.55;;;4.10;;
21272;SDS011;36726;52.328;10.552;2022-07-01T10:40:40;4.85;;;3.97;;
21272;SDS011;36726;52.328;10.552;2022-07-01T10:43:11;4.70;;;4.07;;
21272;SDS011;36726;52.328;10.552;2022-07-01T10:45:52;6.25;;;4.30;;
21272;SDS011;36726;52.328;10.552;2022-07-01T10:48:19;6.25;;;4.22;;
21272;SDS011;36726;52.328;10.552;2022-07-01T10:50:48;4.82;;;3.80;;
21272;SDS011;36726;52.328;10.552;2022-07-01T10:53:15;4.63;;;3.88;;
21272;SDS011;36726;52.328;10.552;2022-07-01T10:55:46;5.05;;;3.45;;
21272;SDS011;36726;52.328;10.552;2022-07-01T10:58:34;5.13;;;4.32;;
21272;SDS011;36726;52.328;10.552;2022-07-01T11:01:02;6.25;;;4.05;;
21272;SDS011;36726;52.328;10.552;2022-07-01T11:03:33;5.13;;;3.80;;
21272;SDS011;36726;52.328;10.552;2022-07-01T11:06:01;8.27;;;4.15;;
21272;SDS011;36726;52.328;10.552;2022-07-01T11:08:28;4.15;;;3.28;;
21272;SDS011;36726;52.328;10.552;2022-07-01T11:10:57;3.67;;;3.15;;
21272;SDS011;36726;52.328;10.552;2022-07-01T11:13:28;7.32;;;3.67;;
21272;SDS011;36726;52.328;10.552;2022-07-01T11:15:55;6.57;;;3.65;;
21272;SDS011;36726;52.328;10.552;2022-07-01T11:18:22;4.10;;;3.50;;
21272;SDS011;36726;52.328;10.552;2022-07-01T11:20:49;4.22;;;3.42;;
21272;SDS011;36726;52.328;10.552;2022-07-01T11:23:16;3.97;;;3.42;;
21272;SDS011;36726;52.328;10.552;2022-07-01T11:25:42;4.95;;;3.70;;
21272;SDS011;36726;52.328;10.552;2022-07-01T11:28:10;5.15;;;3.63;;
21272;SDS011;36726;52.328;10.552;2022-07-01T11:30:38;4.38;;;3.30;;
21272;SDS011;36726;52.328;10.552;2022-07-01T11:33:05;4.47;;;3.63;;
21272;SDS011;36726;52.328;10.552;2022-07-01T11:35:31;4.93;;;3.47;;
21272;SDS011;36726;52.328;10.552;2022-07-01T11:38:18;4.60;;;3.85;;
21272;SDS011;36726;52.328;10.552;2022-07-01T11:41:04;4.55;;;3.85;;
21272;SDS011;36726;52.328;10.552;2022-07-01T11:43:34;4.57;;;3.58;;
21272;SDS011;36726;52.328;10.552;2022-07-01T11:46:03;5.40;;;3.90;;
21272;SDS011;36726;52.328;10.552;2022-07-01T11:51:11;5.47;;;3.55;;
21272;SDS011;36726;52.328;10.552;2022-07-01T11:53:41;5.32;;;3.92;;
21272;SDS011;36726;52.328;10.552;2022-07-01T11:56:09;7.47;;;4.82;;
21272;SDS011;36726;52.328;10.552;2022-07-01T11:58:40;7.20;;;4.53;;
21272;SDS011;36726;52.328;10.552;2022-07-01T12:01:10;8.38;;;4.75;;
21272;SDS011;36726;52.328;10.552;2022-07-01T12:03:45;4.10;;;3.60;;
21272;SDS011;36726;52.328;10.552;2022-07-01T12:06:12;5.40;;;4.35;;
21272;SDS011;36726;52.328;10.552;2022-07-01T12:08:38;6.25;;;4.70;;
21272;SDS011;36726;52.328;10.552;2022-07-01T12:11:06;5.55;;;4.72;;
21272;SDS011;36726;52.328;10.552;2022-07-01T12:13:34;8.45;;;5.72;;
21272;SDS011;36726;52.328;10.552;2022-07-01T12:16:06;7.22;;;5.30;;
21272;SDS011;36726;52.328;10.552;2022-07-01T12:18:36;6.78;;;4.90;;
21272;SDS011;36726;52.328;10.552;2022-07-01T12:21:03;6.22;;;5.10;;
21272;SDS011;36726;52.328;10.552;2022-07-01T12:23:31;6.35;;;5.00;;
21272;SDS011;36726;52.328;10.552;2022-07-01T12:26:03;10.30;;;4.95;;
21272;SDS011;36726;52.328;10.552;2022-07-01T12:28:48;10.57;;;4.82;;
21272;SDS011;36726;52.328;10.552;2022-07-01T12:31:14;12.70;;;5.43;;
21272;SDS011;36726;52.328;10.552;2022-07-01T12:33:48;5.80;;;4.95;;
21272;SDS011;36726;52.328;10.552;2022-07-01T12:36:16;6.00;;;4.63;;
21272;SDS011;36726;52.328;10.552;2022-07-01T12:38:43;5.00;;;4.15;;
21272;SDS011;36726;52.328;10.552;2022-07-01T12:44:05;5.03;;;3.92;;
21272;SDS011;36726;52.328;10.552;2022-07-01T12:46:45;7.30;;;4.38;;
21272;SDS011;36726;52.328;10.552;2022-07-01T12:49:22;6.55;;;4.50;;
21272;SDS011;36726;52.328;10.552;2022-07-01T12:51:53;5.60;;;3.97;;
21272;SDS011;36726;52.328;10.552;2022-07-01T12:54:28;6.20;;;4.35;;
21272;SDS011;36726;52.328;10.552;2022-07-01T12:57:03;6.90;;;4.35;;
21272;SDS011;36726;52.328;10.552;2022-07-01T12:59:29;5.70;;;4.32;;
21272;SDS011;36726;52.328;10.552;2022-07-01T13:01:56;6.03;;;4.65;;
21272;SDS011;36726;52.328;10.552;2022-07-01T13:04:28;5.65;;;4.68;;
21272;SDS011;36726;52.328;10.552;2022-07-01T13:06:56;5.65;;;4.38;;
21272;SDS011;36726;52.328;10.552;2022-07-01T13:09:23;7.13;;;4.85;;
21272;SDS011;36726;52.328;10.552;2022-07-01T13:11:50;5.25;;;4.40;;
21272;SDS011;36726;52.328;10.552;2022-07-01T13:14:16;7.90;;;5.20;;
21272;SDS011;36726;52.328;10.552;2022-07-01T13:16:43;11.55;;;5.97;;
21272;SDS011;36726;52.328;10.552;2022-07-01T13:19:09;10.85;;;6.00;;
21272;SDS011;36726;52.328;10.552;2022-07-01T13:21:36;6.20;;;5.50;;
21272;SDS011;36726;52.328;10.552;2022-07-01T13:24:03;6.80;;;5.38;;
21272;SDS011;36726;52.328;10.552;2022-07-01T13:26:49;9.20;;;5.75;;
21272;SDS011;36726;52.328;10.552;2022-07-01T13:29:16;9.55;;;5.72;;
21272;SDS011;36726;52.328;10.552;2022-07-01T13:31:43;8.13;;;5.47;;
21272;SDS011;36726;52.328;10.552;2022-07-01T13:34:09;6.38;;;5.55;;
21272;SDS011;36726;52.328;10.552;2022-07-01T13:36:36;6.80;;;5.63;;
21272;SDS011;36726;52.328;10.552;2022-07-01T13:39:05;6.80;;;5.35;;
21272;SDS011;36726;52.328;10.552;2022-07-01T13:41:31;7.82;;;5.85;;
21272;SDS011;36726;52.328;10.552;2022-07-01T13:43:58;8.82;;;5.88;;
21272;SDS011;36726;52.328;10.552;2022-07-01T13:46:25;9.02;;;5.50;;
21272;SDS011;36726;52.328;10.552;2022-07-01T13:48:51;6.65;;;4.90;;
21272;SDS011;36726;52.328;10.552;2022-07-01T13:51:18;6.53;;;5.13;;
21272;SDS011;36726;52.328;10.552;2022-07-01T13:53:45;9.43;;;5.45;;
21272;SDS011;36726;52.328;10.552;2022-07-01T13:56:11;7.03;;;5.40;;
21272;SDS011;36726;52.328;10.552;2022-07-01T13:58:38;7.07;;;6.00;;
21272;SDS011;36726;52.328;10.552;2022-07-01T14:01:04;7.70;;;5.25;;
21272;SDS011;36726;52.328;10.552;2022-07-01T14:03:31;7.38;;;5.03;;
21272;SDS011;36726;52.328;10.552;2022-07-01T14:05:58;5.82;;;4.55;;
21272;SDS011;36726;52.328;10.552;2022-07-01T14:08:24;5.00;;;4.35;;
21272;SDS011;36726;52.328;10.552;2022-07-01T14:10:53;6.53;;;4.32;;
21272;SDS011;36726;52.328;10.552;2022-07-01T14:13:20;5.28;;;4.20;;
21272;SDS011;36726;52.328;10.552;2022-07-01T14:15:48;5.25;;;3.85;;
21272;SDS011;36726;52.328;10.552;2022-07-01T14:18:15;5.82;;;3.72;;
21272;SDS011;36726;52.328;10.552;2022-07-01T14:20:42;3.85;;;3.45;;
21272;SDS011;36726;52.328;10.552;2022-07-01T14:23:11;4.82;;;3.65;;
21272;SDS011;36726;52.328;10.552;2022-07-01T14:25:38;4.35;;;3.20;;
21272;SDS011;36726;52.328;10.552;2022-07-01T14:28:06;4.80;;;3.15;;
21272;SDS011;36726;52.328;10.552;2022-07-01T14:30:35;3.22;;;2.90;;
21272;SDS011;36726;52.328;10.552;2022-07-01T14:33:01;3.25;;;2.92;;
21272;SDS011;36726;52.328;10.552;2022-07-01T14:35:28;6.07;;;2.65;;
21272;SDS011;36726;52.328;10.552;2022-07-01T14:37:55;3.22;;;2.20;;
21272;SDS011;36726;52.328;10.552;2022-07-01T14:40:23;3.78;;;2.63;;
21272;SDS011;36726;52.328;10.552;2022-07-01T14:42:50;2.30;;;1.67;;
21272;SDS011;36726;52.328;10.552;2022-07-01T14:45:17;3.50;;;2.15;;
21272;SDS011;36726;52.328;10.552;2022-07-01T14:47:46;3.83;;;1.88;;
21272;SDS011;36726;52.328;10.552;2022-07-01T14:50:20;2.72;;;2.10;;
21272;SDS011;36726;52.328;10.552;2022-07-01T14:52:47;2.92;;;2.20;;
21272;SDS011;36726;52.328;10.552;2022-07-01T14:55:14;2.90;;;1.95;;
21272;SDS011;36726;52.328;10.552;2022-07-01T14:57:43;5.32;;;2.35;;
21272;SDS011;36726;52.328;10.552;2022-07-01T15:00:10;2.60;;;1.75;;
21272;SDS011;36726;52.328;10.552;2022-07-01T15:02:37;2.20;;;1.58;;
21272;SDS011;36726;52.328;10.552;2022-07-01T15:05:05;5.35;;;2.30;;
21272;SDS011;36726;52.328;10.552;2022-07-01T15:07:32;4.07;;;2.20;;